createdAt,value
2023-03-06T00:04:08.174Z,4.10
2023-03-06T00:09:11.894Z,4.82
2023-03-06T00:14:16.058Z,4.18
2023-03-06T00:19:20.986Z,4.68
2023-03-06T00:24:24.465Z,4.05
2023-03-06T00:29:27.916Z,3.80
2023-03-06T00:34:32.709Z,4.28
2023-03-06T00:39:36.156Z,3.38
2023-03-06T00:44:40.082Z,3.80
2023-03-06T00:49:45.252Z,4.05
2023-03-06T00:54:48.753Z,4.80
2023-03-06T00:59:52.243Z,4.32
2023-03-06T01:04:58.156Z,5.90
2023-03-06T01:10:01.703Z,4.70
2023-03-06T01:15:06.645Z,5.47
2023-03-06T01:20:15.154Z,5.40
2023-03-06T01:25:19.188Z,5.38
2023-03-06T01:30:22.671Z,5.00
2023-03-06T01:35:27.500Z,4.80
2023-03-06T01:40:32.778Z,4.97
2023-03-06T01:46:13.388Z,4.50
2023-03-06T01:51:18.696Z,6.13
2023-03-06T01:56:22.600Z,4.57
2023-03-06T02:01:27.409Z,5.78
2023-03-06T02:06:33.305Z,6.15
2023-03-06T02:11:36.967Z,5.43
2023-03-06T02:16:42.036Z,6.80
2023-03-06T02:21:47.127Z,6.55
2023-03-06T02:26:54.268Z,6.88
2023-03-06T02:31:58.072Z,5.72
2023-03-06T02:37:03.988Z,8.07
2023-03-06T02:42:09.082Z,7.80
2023-03-06T02:47:12.491Z,6.88
2023-03-06T02:52:15.885Z,7.30
2023-03-06T02:57:20.645Z,8.00
2023-03-06T03:02:24.044Z,8.38
2023-03-06T03:07:27.658Z,8.25
2023-03-06T03:12:33.590Z,7.40
2023-03-06T03:17:37.530Z,8.00
2023-03-06T03:22:41.068Z,7.90
2023-03-06T03:27:46.187Z,7.93
2023-03-06T03:32:49.577Z,8.43
2023-03-06T03:37:54.763Z,8.18
2023-03-06T03:42:59.786Z,8.38
2023-03-06T03:48:03.153Z,7.60
2023-03-06T03:53:06.805Z,8.20
2023-03-06T03:58:11.566Z,8.10
2023-03-06T04:03:14.977Z,8.45
2023-03-06T04:08:18.386Z,9.38
2023-03-06T04:13:23.868Z,13.88
2023-03-06T04:18:28.493Z,15.90
2023-03-06T04:23:32.079Z,14.77
2023-03-06T04:28:36.810Z,13.52
2023-03-06T04:33:40.246Z,11.00
2023-03-06T04:38:43.677Z,11.15
2023-03-06T04:43:48.482Z,11.32
2023-03-06T04:48:51.855Z,10.80
2023-03-06T04:53:55.263Z,10.02
2023-03-06T04:59:00.048Z,10.20
2023-03-06T05:04:03.546Z,10.05
2023-03-06T05:09:07.259Z,10.25
2023-03-06T05:14:12.059Z,10.35
2023-03-06T05:19:15.676Z,10.00
2023-03-06T05:24:19.111Z,8.50
2023-03-06T05:29:24.333Z,8.88
2023-03-06T05:34:27.758Z,8.07
2023-03-06T05:39:31.728Z,8.15
2023-03-06T05:44:37.412Z,9.05
2023-03-06T05:49:41.735Z,8.70
2023-03-06T05:54:45.265Z,9.35
2023-03-06T05:59:51.631Z,8.77
2023-03-06T06:04:55.264Z,8.38
2023-03-06T06:09:58.660Z,7.70
2023-03-06T06:15:03.450Z,7.15
2023-03-06T06:20:07.755Z,7.88
2023-03-06T06:25:11.525Z,8.60
2023-03-06T06:30:16.919Z,8.13
2023-03-06T06:35:20.331Z,9.90
2023-03-06T06:40:24.441Z,9.25
2023-03-06T06:45:30.029Z,10.10
2023-03-06T06:50:33.454Z,8.95
2023-03-06T06:55:38.930Z,10.75
2023-03-06T07:00:43.675Z,10.88
2023-03-06T07:05:47.306Z,9.73
2023-03-06T07:10:50.743Z,10.40
2023-03-06T07:15:55.574Z,9.82
2023-03-06T07:21:01.259Z,11.10
2023-03-06T07:26:05.175Z,10.77
2023-03-06T07:31:11.964Z,12.27
2023-03-06T07:36:15.521Z,12.07
2023-03-06T07:41:21.216Z,12.70
2023-03-06T07:46:27.719Z,12.32
2023-03-06T07:51:31.239Z,13.07
2023-03-06T07:56:35.479Z,13.18
2023-03-06T08:01:40.467Z,12.23
2023-03-06T08:06:44.086Z,11.88
2023-03-06T08:11:47.519Z,13.90
2023-03-06T08:16:52.908Z,13.65
2023-03-06T08:21:57.490Z,14.07
2023-03-06T08:27:01.754Z,14.15
2023-03-06T08:32:07.422Z,12.70
2023-03-06T08:37:10.890Z,14.15
2023-03-06T08:42:14.520Z,13.43
2023-03-06T08:47:19.306Z,16.45
2023-03-06T08:52:22.676Z,22.17
2023-03-06T08:57:26.127Z,14.90
2023-03-06T09:02:31.087Z,14.23
2023-03-06T09:07:35.307Z,13.60
2023-03-06T09:12:49.746Z,12.43
2023-03-06T09:17:56.301Z,12.10
2023-03-06T09:23:00.063Z,12.43
2023-03-06T09:28:11.262Z,11.82
2023-03-06T09:33:18.055Z,11.27
2023-03-06T09:38:23.736Z,11.93
2023-03-06T09:43:30.807Z,11.68
2023-03-06T09:48:43.485Z,10.50
2023-03-06T09:54:06.826Z,10.57
2023-03-06T09:59:15.329Z,10.55
2023-03-06T10:04:33.296Z,10.13
2023-03-06T10:09:42.874Z,9.75
2023-03-06T10:14:49.323Z,9.85
2023-03-06T10:19:54.454Z,11.40
2023-03-06T10:25:04.246Z,11.25
2023-03-06T10:30:27.360Z,10.73
2023-03-06T10:35:46.896Z,12.00
2023-03-06T10:41:06.715Z,11.40
2023-03-06T10:46:13.207Z,11.70
2023-03-06T10:51:20.109Z,11.20
2023-03-06T10:56:32.206Z,11.57
2023-03-06T11:01:36.190Z,9.60
2023-03-06T11:06:41.176Z,9.93
2023-03-06T11:11:44.920Z,9.15
2023-03-06T11:16:53.251Z,8.75
2023-03-06T11:22:03.549Z,9.18
2023-03-06T11:27:23.724Z,8.90
2023-03-06T11:32:30.511Z,9.02
2023-03-06T11:37:44.498Z,9.00
2023-03-06T11:42:53.944Z,9.23
2023-03-06T11:48:04.684Z,7.03
2023-03-06T11:53:13.051Z,9.20
2023-03-06T11:58:39.139Z,8.48
2023-03-06T12:04:19.988Z,8.93
2023-03-06T12:09:39.261Z,8.38
2023-03-06T12:15:12.082Z,8.23
2023-03-06T12:20:25.623Z,7.68
2023-03-06T12:25:36.399Z,8.90
2023-03-06T12:31:03.503Z,8.20
2023-03-06T12:36:28.087Z,8.15
2023-03-06T12:41:44.382Z,8.75
2023-03-06T12:46:52.824Z,8.07
2023-03-06T12:51:58.018Z,7.30
2023-03-06T12:57:03.403Z,7.53
2023-03-06T13:02:42.750Z,8.20
2023-03-06T13:08:01.187Z,8.15
2023-03-06T13:13:31.077Z,8.05
2023-03-06T13:19:05.242Z,7.63
2023-03-06T13:24:17.385Z,8.57
2023-03-06T13:29:51.367Z,7.25
2023-03-06T13:34:54.780Z,7.30
2023-03-06T13:40:30.877Z,6.50
2023-03-06T13:45:40.336Z,7.28
2023-03-06T13:50:45.328Z,8.05
2023-03-06T13:56:02.299Z,7.03
2023-03-06T14:01:21.858Z,9.40
2023-03-06T14:07:05.652Z,9.57
2023-03-06T14:12:18.821Z,11.10
2023-03-06T14:17:29.656Z,12.88
2023-03-06T14:22:33.370Z,11.02
2023-03-06T14:27:46.192Z,11.88
2023-03-06T14:32:53.474Z,11.10
2023-03-06T14:38:01.639Z,11.50
2023-03-06T14:43:19.208Z,10.57
2023-03-06T14:48:25.990Z,11.07
2023-03-06T14:53:31.270Z,11.05
2023-03-06T14:58:40.277Z,11.15
2023-03-06T15:03:48.784Z,10.52
2023-03-06T15:08:59.139Z,10.23
2023-03-06T15:14:05.368Z,9.77
2023-03-06T15:19:20.265Z,9.05
2023-03-06T15:24:35.928Z,9.95
2023-03-06T15:29:40.330Z,11.70
2023-03-06T15:34:45.263Z,9.98
2023-03-06T15:40:06.616Z,10.38
2023-03-06T15:45:16.285Z,11.00
2023-03-06T15:50:24.461Z,11.27
2023-03-06T15:55:27.956Z,10.55
2023-03-06T16:00:35.185Z,11.75
2023-03-06T16:05:40.168Z,11.10
2023-03-06T16:10:46.394Z,11.38
2023-03-06T16:15:51.276Z,11.30
2023-03-06T16:20:57.044Z,11.45
2023-03-06T16:26:00.693Z,11.32
2023-03-06T16:31:04.346Z,12.23
2023-03-06T16:36:14.290Z,12.35
2023-03-06T16:41:19.190Z,12.93
2023-03-06T16:46:24.968Z,11.60
2023-03-06T16:51:30.316Z,13.32
2023-03-06T16:56:33.737Z,11.18
2023-03-06T17:01:37.680Z,20.77
2023-03-06T17:06:43.193Z,13.52
2023-03-06T17:11:46.882Z,12.68
2023-03-06T17:16:50.321Z,13.35
2023-03-06T17:21:55.661Z,12.25
2023-03-06T17:26:59.639Z,14.38
2023-03-06T17:32:03.401Z,13.20
2023-03-06T17:37:08.658Z,13.23
2023-03-06T17:42:12.255Z,12.43
2023-03-06T17:47:15.676Z,11.02
2023-03-06T17:52:20.637Z,11.73
2023-03-06T17:57:24.072Z,12.05
2023-03-06T18:02:27.505Z,11.82
2023-03-06T18:07:32.315Z,13.57
2023-03-06T18:12:35.739Z,17.33
2023-03-06T18:17:39.590Z,20.90
2023-03-06T18:22:44.382Z,21.08
2023-03-06T18:27:47.812Z,20.80
2023-03-06T18:32:51.232Z,20.70
2023-03-06T18:37:56.661Z,22.90
2023-03-06T18:43:00.314Z,28.55
2023-03-06T18:48:05.015Z,22.17
2023-03-06T18:53:09.864Z,20.65
2023-03-06T18:58:13.277Z,19.85
2023-03-06T19:03:16.983Z,20.60
2023-03-06T19:08:21.677Z,20.10
2023-03-06T19:13:25.059Z,20.95
2023-03-06T19:18:29.474Z,19.73
2023-03-06T19:23:34.220Z,20.50
2023-03-06T19:28:38.977Z,18.77
2023-03-06T19:33:43.716Z,21.70
2023-03-06T19:38:52.508Z,19.55
2023-03-06T19:43:58.367Z,20.25
2023-03-06T19:49:03.202Z,17.63
2023-03-06T19:54:07.977Z,18.15
2023-03-06T19:59:11.724Z,17.45
2023-03-06T20:04:16.475Z,19.13
2023-03-06T20:09:21.229Z,18.50
2023-03-06T20:14:24.611Z,18.83
2023-03-06T20:19:28.145Z,20.20
2023-03-06T20:24:32.924Z,17.73
2023-03-06T20:29:36.538Z,22.17
2023-03-06T20:34:41.137Z,22.42
2023-03-06T20:39:46.729Z,20.95
2023-03-06T20:44:50.149Z,21.00
2023-03-06T20:49:53.548Z,20.92
2023-03-06T20:54:58.949Z,21.15
2023-03-06T21:00:02.331Z,21.58
2023-03-06T21:05:06.635Z,21.52
2023-03-06T21:10:14.577Z,21.40
2023-03-06T21:15:19.549Z,22.05
2023-03-06T21:20:23.264Z,23.92
2023-03-06T21:25:28.682Z,21.58
2023-03-06T21:30:32.110Z,29.00
2023-03-06T21:35:38.637Z,31.38
2023-03-06T21:40:45.442Z,37.13
2023-03-06T21:45:52.686Z,31.05
2023-03-06T21:51:05.208Z,26.77
2023-03-06T21:56:11.386Z,23.20
2023-03-06T22:01:18.312Z,19.73
2023-03-06T22:06:23.567Z,25.27
2023-03-06T22:11:34.233Z,26.65
2023-03-06T22:16:37.758Z,22.75
2023-03-06T22:21:41.184Z,20.88
2023-03-06T22:26:46.016Z,19.73
2023-03-06T22:31:49.726Z,19.52
2023-03-06T22:36:53.506Z,18.48
2023-03-06T22:41:58.801Z,19.40
2023-03-06T22:47:02.623Z,22.48
2023-03-06T22:52:06.361Z,22.02
2023-03-06T22:57:11.131Z,22.60
2023-03-06T23:02:14.478Z,23.08
2023-03-06T23:07:18.164Z,21.13
2023-03-06T23:12:22.959Z,21.95
2023-03-06T23:17:26.420Z,23.45
2023-03-06T23:22:29.824Z,25.23
2023-03-06T23:27:36.648Z,27.08
2023-03-06T23:32:40.185Z,25.15
2023-03-06T23:37:43.687Z,24.85
2023-03-06T23:42:48.565Z,24.92
2023-03-06T23:47:51.939Z,23.08
2023-03-06T23:52:56.182Z,22.02
2023-03-06T23:58:01.879Z,21.70
